sensor_id;sensor_type;location;lat;lon;timestamp;temperature;humidity
15617;DHT22;7908;51.688;7.130;2024-03-02T00:00:58;7.50;99.90
15617;DHT22;7908;51.688;7.130;2024-03-02T00:03:27;7.50;99.90
15617;DHT22;7908;51.688;7.130;2024-03-02T00:05:56;7.60;99.90
15617;DHT22;7908;51.688;7.130;2024-03-02T00:08:25;7.60;99.90
15617;DHT22;7908;51.688;7.130;2024-03-02T00:10:58;7.70;99.90
15617;DHT22;7908;51.688;7.130;2024-03-02T00:13:27;7.70;99.90
15617;DHT22;7908;51.688;7.130;2024-03-02T00:15:57;7.60;99.90
15617;DHT22;7908;51.688;7.130;2024-03-02T00:18:26;7.50;99.90
15617;DHT22;7908;51.688;7.130;2024-03-02T00:20:55;7.50;99.90
15617;DHT22;7908;51.688;7.130;2024-03-02T00:23:25;7.40;99.90
15617;DHT22;7908;51.688;7.130;2024-03-02T00:25:55;7.30;99.90
15617;DHT22;7908;51.688;7.130;2024-03-02T00:28:25;7.30;99.90
15617;DHT22;7908;51.688;7.130;2024-03-02T00:30:56;7.30;99.90
15617;DHT22;7908;51.688;7.130;2024-03-02T00:33:26;7.20;99.90
15617;DHT22;7908;51.688;7.130;2024-03-02T00:35:55;7.20;99.90
15617;DHT22;7908;51.688;7.130;2024-03-02T00:38:24;7.10;99.90
15617;DHT22;7908;51.688;7.130;2024-03-02T00:40:53;7.10;99.90
15617;DHT22;7908;51.688;7.130;2024-03-02T00:46:15;7.10;99.90
15617;DHT22;7908;51.688;7.130;2024-03-02T00:48:47;7.10;99.90
15617;DHT22;7908;51.688;7.130;2024-03-02T00:51:16;7.00;99.90
15617;DHT22;7908;51.688;7.130;2024-03-02T00:53:45;6.90;99.90
15617;DHT22;7908;51.688;7.130;2024-03-02T00:56:13;6.80;99.90
15617;DHT22;7908;51.688;7.130;2024-03-02T00:58:42;6.90;99.90
15617;DHT22;7908;51.688;7.130;2024-03-02T01:01:11;6.80;99.90
15617;DHT22;7908;51.688;7.130;2024-03-02T01:03:41;6.80;99.90
15617;DHT22;7908;51.688;7.130;2024-03-02T01:06:09;6.80;99.90
15617;DHT22;7908;51.688;7.130;2024-03-02T01:08:38;6.70;99.90
15617;DHT22;7908;51.688;7.130;2024-03-02T01:11:07;6.70;99.90
15617;DHT22;7908;51.688;7.130;2024-03-02T01:13:36;6.70;99.90
15617;DHT22;7908;51.688;7.130;2024-03-02T01:16:05;6.60;99.90
15617;DHT22;7908;51.688;7.130;2024-03-02T01:18:34;6.60;99.90
15617;DHT22;7908;51.688;7.130;2024-03-02T01:21:04;6.70;99.90
15617;DHT22;7908;51.688;7.130;2024-03-02T01:23:32;6.70;99.90
15617;DHT22;7908;51.688;7.130;2024-03-02T01:26:01;6.70;99.90
15617;DHT22;7908;51.688;7.130;2024-03-02T01:28:30;6.80;99.90
15617;DHT22;7908;51.688;7.130;2024-03-02T01:30:58;6.80;99.90
15617;DHT22;7908;51.688;7.130;2024-03-02T01:33:27;6.90;99.90
15617;DHT22;7908;51.688;7.130;2024-03-02T01:35:55;6.90;99.90
15617;DHT22;7908;51.688;7.130;2024-03-02T01:38:25;7.00;99.90
15617;DHT22;7908;51.688;7.130;2024-03-02T01:40:55;7.10;99.90
15617;DHT22;7908;51.688;7.130;2024-03-02T01:43:25;7.10;99.90
15617;DHT22;7908;51.688;7.130;2024-03-02T01:45:54;7.10;99.90
15617;DHT22;7908;51.688;7.130;2024-03-02T01:48:23;7.20;99.90
15617;DHT22;7908;51.688;7.130;2024-03-02T01:50:52;7.20;99.90
15617;DHT22;7908;51.688;7.130;2024-03-02T01:53:20;7.30;99.90
15617;DHT22;7908;51.688;7.130;2024-03-02T01:55:51;7.40;99.90
15617;DHT22;7908;51.688;7.130;2024-03-02T01:58:19;7.40;99.90
15617;DHT22;7908;51.688;7.130;2024-03-02T02:00:47;7.40;99.90
15617;DHT22;7908;51.688;7.130;2024-03-02T02:03:17;7.50;99.90
15617;DHT22;7908;51.688;7.130;2024-03-02T02:05:46;7.60;99.90
15617;DHT22;7908;51.688;7.130;2024-03-02T02:08:14;7.60;99.90
15617;DHT22;7908;51.688;7.130;2024-03-02T02:10:43;7.60;99.90
15617;DHT22;7908;51.688;7.130;2024-03-02T02:13:13;7.60;99.90
15617;DHT22;7908;51.688;7.130;2024-03-02T02:15:41;7.60;99.90
15617;DHT22;7908;51.688;7.130;2024-03-02T02:18:10;7.60;99.90
15617;DHT22;7908;51.688;7.130;2024-03-02T02:20:39;7.60;99.90
15617;DHT22;7908;51.688;7.130;2024-03-02T02:23:09;7.60;99.90
15617;DHT22;7908;51.688;7.130;2024-03-02T02:25:37;7.60;99.90
15617;DHT22;7908;51.688;7.130;2024-03-02T02:28:06;7.60;99.90
15617;DHT22;7908;51.688;7.130;2024-03-02T02:30:34;7.70;99.90
15617;DHT22;7908;51.688;7.130;2024-03-02T02:33:03;7.70;99.90
15617;DHT22;7908;51.688;7.130;2024-03-02T02:35:31;7.70;99.90
15617;DHT22;7908;51.688;7.130;2024-03-02T02:38:00;7.80;99.90
15617;DHT22;7908;51.688;7.130;2024-03-02T02:40:30;7.80;99.90
15617;DHT22;7908;51.688;7.130;2024-03-02T02:42:59;7.80;99.90
15617;DHT22;7908;51.688;7.130;2024-03-02T02:45:27;7.80;99.90
15617;DHT22;7908;51.688;7.130;2024-03-02T02:47:56;7.80;99.90
15617;DHT22;7908;51.688;7.130;2024-03-02T02:50:24;7.70;99.90
15617;DHT22;7908;51.688;7.130;2024-03-02T02:52:53;7.70;99.90
15617;DHT22;7908;51.688;7.130;2024-03-02T02:55:21;7.80;99.90
15617;DHT22;7908;51.688;7.130;2024-03-02T02:57:51;7.80;99.90
15617;DHT22;7908;51.688;7.130;2024-03-02T03:00:20;7.80;99.90
15617;DHT22;7908;51.688;7.130;2024-03-02T03:02:50;7.80;99.90
15617;DHT22;7908;51.688;7.130;2024-03-02T03:05:18;7.80;99.90
15617;DHT22;7908;51.688;7.130;2024-03-02T03:07:47;7.90;99.90
15617;DHT22;7908;51.688;7.130;2024-03-02T03:10:17;7.90;99.90
15617;DHT22;7908;51.688;7.130;2024-03-02T03:12:49;7.90;99.90
15617;DHT22;7908;51.688;7.130;2024-03-02T03:15:18;7.90;99.90
15617;DHT22;7908;51.688;7.130;2024-03-02T03:17:47;7.90;99.90
15617;DHT22;7908;51.688;7.130;2024-03-02T03:20:16;7.90;99.90
15617;DHT22;7908;51.688;7.130;2024-03-02T03:22:44;8.00;99.90
15617;DHT22;7908;51.688;7.130;2024-03-02T03:25:12;7.90;99.90
15617;DHT22;7908;51.688;7.130;2024-03-02T03:27:40;8.00;99.90
15617;DHT22;7908;51.688;7.130;2024-03-02T03:30:10;8.00;99.90
15617;DHT22;7908;51.688;7.130;2024-03-02T03:32:40;8.00;99.90
15617;DHT22;7908;51.688;7.130;2024-03-02T03:35:08;8.00;99.90
15617;DHT22;7908;51.688;7.130;2024-03-02T03:37:37;8.00;99.90
15617;DHT22;7908;51.688;7.130;2024-03-02T03:40:06;7.90;99.90
15617;DHT22;7908;51.688;7.130;2024-03-02T03:42:37;7.90;99.90
15617;DHT22;7908;51.688;7.130;2024-03-02T03:45:07;7.80;99.90
15617;DHT22;7908;51.688;7.130;2024-03-02T03:47:35;7.80;99.90
15617;DHT22;7908;51.688;7.130;2024-03-02T03:50:06;7.80;99.90
15617;DHT22;7908;51.688;7.130;2024-03-02T03:52:34;7.80;99.90
15617;DHT22;7908;51.688;7.130;2024-03-02T03:55:03;7.70;99.90
15617;DHT22;7908;51.688;7.130;2024-03-02T03:57:33;7.70;99.90
15617;DHT22;7908;51.688;7.130;2024-03-02T04:00:02;7.60;99.90
15617;DHT22;7908;51.688;7.130;2024-03-02T04:02:30;7.60;99.90
15617;DHT22;7908;51.688;7.130;2024-03-02T04:04:59;7.70;99.90
15617;DHT22;7908;51.688;7.130;2024-03-02T04:07:29;7.80;99.90
15617;DHT22;7908;51.688;7.130;2024-03-02T04:09:57;7.80;99.90
15617;DHT22;7908;51.688;7.130;2024-03-02T04:12:25;7.80;99.90
15617;DHT22;7908;51.688;7.130;2024-03-02T04:14:54;7.80;99.90
15617;DHT22;7908;51.688;7.130;2024-03-02T04:17:22;7.80;99.90
15617;DHT22;7908;51.688;7.130;2024-03-02T04:19:50;7.80;99.90
15617;DHT22;7908;51.688;7.130;2024-03-02T04:22:19;7.80;99.90
15617;DHT22;7908;51.688;7.130;2024-03-02T04:24:53;7.70;99.90
15617;DHT22;7908;51.688;7.130;2024-03-02T04:27:21;7.70;99.90
15617;DHT22;7908;51.688;7.130;2024-03-02T04:29:50;7.70;99.90
15617;DHT22;7908;51.688;7.130;2024-03-02T04:32:18;7.70;99.90
15617;DHT22;7908;51.688;7.130;2024-03-02T04:34:47;7.70;99.90
15617;DHT22;7908;51.688;7.130;2024-03-02T04:37:16;7.60;99.90
15617;DHT22;7908;51.688;7.130;2024-03-02T04:39:44;7.50;99.90
15617;DHT22;7908;51.688;7.130;2024-03-02T04:42:15;7.40;99.90
15617;DHT22;7908;51.688;7.130;2024-03-02T04:44:44;7.20;99.90
15617;DHT22;7908;51.688;7.130;2024-03-02T04:47:12;7.20;99.90
15617;DHT22;7908;51.688;7.130;2024-03-02T04:49:41;7.10;99.90
15617;DHT22;7908;51.688;7.130;2024-03-02T04:52:10;7.10;99.90
15617;DHT22;7908;51.688;7.130;2024-03-02T04:54:38;7.10;99.90
15617;DHT22;7908;51.688;7.130;2024-03-02T04:57:22;7.10;99.90
15617;DHT22;7908;51.688;7.130;2024-03-02T04:59:50;7.20;99.90
15617;DHT22;7908;51.688;7.130;2024-03-02T05:02:19;7.20;99.90
15617;DHT22;7908;51.688;7.130;2024-03-02T05:04:47;7.20;99.90
15617;DHT22;7908;51.688;7.130;2024-03-02T05:07:15;7.20;99.90
15617;DHT22;7908;51.688;7.130;2024-03-02T05:09:44;7.20;99.90
15617;DHT22;7908;51.688;7.130;2024-03-02T05:12:12;7.10;99.90
15617;DHT22;7908;51.688;7.130;2024-03-02T05:15:09;7.00;99.90
15617;DHT22;7908;51.688;7.130;2024-03-02T05:17:38;6.90;99.90
15617;DHT22;7908;51.688;7.130;2024-03-02T05:20:06;6.90;99.90
15617;DHT22;7908;51.688;7.130;2024-03-02T05:22:35;6.80;99.90
15617;DHT22;7908;51.688;7.130;2024-03-02T05:25:04;6.80;99.90
15617;DHT22;7908;51.688;7.130;2024-03-02T05:27:33;6.80;99.90
15617;DHT22;7908;51.688;7.130;2024-03-02T05:30:02;6.80;99.90
15617;DHT22;7908;51.688;7.130;2024-03-02T05:32:31;6.70;99.90
15617;DHT22;7908;51.688;7.130;2024-03-02T05:35:00;6.70;99.90
15617;DHT22;7908;51.688;7.130;2024-03-02T05:37:30;6.60;99.90
15617;DHT22;7908;51.688;7.130;2024-03-02T05:39:58;6.60;99.90
15617;DHT22;7908;51.688;7.130;2024-03-02T05:42:27;6.50;99.90
15617;DHT22;7908;51.688;7.130;2024-03-02T05:44:55;6.40;99.90
15617;DHT22;7908;51.688;7.130;2024-03-02T05:47:24;6.30;99.90
15617;DHT22;7908;51.688;7.130;2024-03-02T05:49:53;6.20;99.90
15617;DHT22;7908;51.688;7.130;2024-03-02T05:52:22;6.20;99.90
15617;DHT22;7908;51.688;7.130;2024-03-02T05:54:50;6.10;99.90
15617;DHT22;7908;51.688;7.130;2024-03-02T05:57:19;6.00;99.90
15617;DHT22;7908;51.688;7.130;2024-03-02T06:00:01;6.00;99.90
15617;DHT22;7908;51.688;7.130;2024-03-02T06:02:32;5.90;99.90
15617;DHT22;7908;51.688;7.130;2024-03-02T06:05:07;5.90;99.90
15617;DHT22;7908;51.688;7.130;2024-03-02T06:07:35;5.80;99.90
15617;DHT22;7908;51.688;7.130;2024-03-02T06:10:04;5.80;99.90
15617;DHT22;7908;51.688;7.130;2024-03-02T06:12:38;5.80;99.90
15617;DHT22;7908;51.688;7.130;2024-03-02T06:15:06;5.80;99.90
15617;DHT22;7908;51.688;7.130;2024-03-02T06:17:36;5.80;99.90
15617;DHT22;7908;51.688;7.130;2024-03-02T06:20:04;5.70;99.90
15617;DHT22;7908;51.688;7.130;2024-03-02T06:22:36;5.70;99.90
15617;DHT22;7908;51.688;7.130;2024-03-02T06:25:05;5.70;99.90
15617;DHT22;7908;51.688;7.130;2024-03-02T06:27:34;5.70;99.90
15617;DHT22;7908;51.688;7.130;2024-03-02T06:30:03;5.70;99.90
15617;DHT22;7908;51.688;7.130;2024-03-02T06:32:32;5.70;99.90
15617;DHT22;7908;51.688;7.130;2024-03-02T06:35:00;5.70;99.90
15617;DHT22;7908;51.688;7.130;2024-03-02T06:37:28;5.70;99.90
15617;DHT22;7908;51.688;7.130;2024-03-02T06:39:59;5.70;99.90
15617;DHT22;7908;51.688;7.130;2024-03-02T06:42:27;5.70;99.90
15617;DHT22;7908;51.688;7.130;2024-03-02T06:45:00;5.70;99.90
15617;DHT22;7908;51.688;7.130;2024-03-02T06:47:29;5.70;99.90
15617;DHT22;7908;51.688;7.130;2024-03-02T06:49:57;5.70;99.90
15617;DHT22;7908;51.688;7.130;2024-03-02T06:52:26;5.70;99.90
15617;DHT22;7908;51.688;7.130;2024-03-02T06:54:55;5.80;99.90
15617;DHT22;7908;51.688;7.130;2024-03-02T06:57:25;5.80;99.90
15617;DHT22;7908;51.688;7.130;2024-03-02T06:59:54;5.80;99.90
15617;DHT22;7908;51.688;7.130;2024-03-02T07:02:26;5.90;99.90
15617;DHT22;7908;51.688;7.130;2024-03-02T07:04:54;5.90;99.90
15617;DHT22;7908;51.688;7.130;2024-03-02T07:07:23;6.00;99.90
15617;DHT22;7908;51.688;7.130;2024-03-02T07:09:52;6.10;99.90
15617;DHT22;7908;51.688;7.130;2024-03-02T07:12:20;6.20;99.90
15617;DHT22;7908;51.688;7.130;2024-03-02T07:14:50;6.20;99.90
15617;DHT22;7908;51.688;7.130;2024-03-02T07:17:36;6.30;99.90
15617;DHT22;7908;51.688;7.130;2024-03-02T07:20:05;6.40;99.90
15617;DHT22;7908;51.688;7.130;2024-03-02T07:22:33;6.50;99.90
15617;DHT22;7908;51.688;7.130;2024-03-02T07:25:02;6.50;99.90
15617;DHT22;7908;51.688;7.130;2024-03-02T07:27:31;6.60;99.90
15617;DHT22;7908;51.688;7.130;2024-03-02T07:30:02;6.70;99.90
15617;DHT22;7908;51.688;7.130;2024-03-02T07:32:30;6.70;99.90
15617;DHT22;7908;51.688;7.130;2024-03-02T07:34:59;6.80;99.90
15617;DHT22;7908;51.688;7.130;2024-03-02T07:37:28;6.80;99.90
15617;DHT22;7908;51.688;7.130;2024-03-02T07:39:57;6.90;99.90
15617;DHT22;7908;51.688;7.130;2024-03-02T07:42:25;7.10;99.90
15617;DHT22;7908;51.688;7.130;2024-03-02T07:44:56;7.30;99.90
15617;DHT22;7908;51.688;7.130;2024-03-02T07:47:26;7.60;99.90
15617;DHT22;7908;51.688;7.130;2024-03-02T07:49:54;8.00;99.90
15617;DHT22;7908;51.688;7.130;2024-03-02T07:52:22;8.30;99.90
15617;DHT22;7908;51.688;7.130;2024-03-02T07:54:51;8.60;99.90
15617;DHT22;7908;51.688;7.130;2024-03-02T07:57:21;8.80;99.90
15617;DHT22;7908;51.688;7.130;2024-03-02T07:59:49;8.90;99.90
15617;DHT22;7908;51.688;7.130;2024-03-02T08:02:18;9.10;99.90
15617;DHT22;7908;51.688;7.130;2024-03-02T08:04:48;9.20;99.90
15617;DHT22;7908;51.688;7.130;2024-03-02T08:07:18;9.20;99.90
15617;DHT22;7908;51.688;7.130;2024-03-02T08:09:46;9.20;99.90
15617;DHT22;7908;51.688;7.130;2024-03-02T08:12:15;9.20;99.90
15617;DHT22;7908;51.688;7.130;2024-03-02T08:14:45;9.10;99.90
15617;DHT22;7908;51.688;7.130;2024-03-02T08:17:13;9.10;99.90
15617;DHT22;7908;51.688;7.130;2024-03-02T08:19:42;9.10;99.90
15617;DHT22;7908;51.688;7.130;2024-03-02T08:22:12;9.10;99.90
15617;DHT22;7908;51.688;7.130;2024-03-02T08:24:41;9.00;99.90
15617;DHT22;7908;51.688;7.130;2024-03-02T08:27:10;9.00;99.90
15617;DHT22;7908;51.688;7.130;2024-03-02T08:29:39;9.10;99.90
15617;DHT22;7908;51.688;7.130;2024-03-02T08:32:08;9.20;99.90
15617;DHT22;7908;51.688;7.130;2024-03-02T08:34:37;9.20;99.90
15617;DHT22;7908;51.688;7.130;2024-03-02T08:37:05;9.30;99.90
15617;DHT22;7908;51.688;7.130;2024-03-02T08:39:36;9.40;99.90
15617;DHT22;7908;51.688;7.130;2024-03-02T08:42:05;9.40;99.90
15617;DHT22;7908;51.688;7.130;2024-03-02T08:44:34;9.40;99.90
15617;DHT22;7908;51.688;7.130;2024-03-02T08:47:03;9.40;99.90
15617;DHT22;7908;51.688;7.130;2024-03-02T08:49:32;9.50;99.90
15617;DHT22;7908;51.688;7.130;2024-03-02T08:52:00;9.50;99.90
15617;DHT22;7908;51.688;7.130;2024-03-02T08:54:30;9.60;99.90
15617;DHT22;7908;51.688;7.130;2024-03-02T08:57:02;9.60;99.90
15617;DHT22;7908;51.688;7.130;2024-03-02T08:59:31;9.60;99.90
15617;DHT22;7908;51.688;7.130;2024-03-02T09:02:00;9.70;99.90
15617;DHT22;7908;51.688;7.130;2024-03-02T09:04:29;9.70;99.90
15617;DHT22;7908;51.688;7.130;2024-03-02T09:07:01;9.70;99.90
15617;DHT22;7908;51.688;7.130;2024-03-02T09:09:32;9.80;99.90
15617;DHT22;7908;51.688;7.130;2024-03-02T09:12:06;9.80;99.90
15617;DHT22;7908;51.688;7.130;2024-03-02T09:14:35;9.90;99.90
15617;DHT22;7908;51.688;7.130;2024-03-02T09:17:04;9.90;99.90
15617;DHT22;7908;51.688;7.130;2024-03-02T09:19:32;10.00;99.90
15617;DHT22;7908;51.688;7.130;2024-03-02T09:22:01;10.00;99.90
15617;DHT22;7908;51.688;7.130;2024-03-02T09:24:32;10.00;99.90
15617;DHT22;7908;51.688;7.130;2024-03-02T09:27:02;10.10;99.90
15617;DHT22;7908;51.688;7.130;2024-03-02T09:29:32;10.10;99.90
15617;DHT22;7908;51.688;7.130;2024-03-02T09:32:01;10.20;99.90
15617;DHT22;7908;51.688;7.130;2024-03-02T09:34:30;10.20;99.90
15617;DHT22;7908;51.688;7.130;2024-03-02T09:36:58;10.30;99.90
15617;DHT22;7908;51.688;7.130;2024-03-02T09:39:27;10.40;99.90
15617;DHT22;7908;51.688;7.130;2024-03-02T09:41:56;10.40;99.90
15617;DHT22;7908;51.688;7.130;2024-03-02T09:44:26;10.50;99.90
15617;DHT22;7908;51.688;7.130;2024-03-02T09:46:56;10.50;99.90
15617;DHT22;7908;51.688;7.130;2024-03-02T09:49:25;10.50;99.90
15617;DHT22;7908;51.688;7.130;2024-03-02T09:51:54;10.60;99.90
15617;DHT22;7908;51.688;7.130;2024-03-02T09:54:22;10.80;99.90
15617;DHT22;7908;51.688;7.130;2024-03-02T09:56:51;10.80;99.90
15617;DHT22;7908;51.688;7.130;2024-03-02T09:59:20;10.90;99.90
15617;DHT22;7908;51.688;7.130;2024-03-02T10:02:00;11.00;99.90
15617;DHT22;7908;51.688;7.130;2024-03-02T10:04:31;11.00;99.90
15617;DHT22;7908;51.688;7.130;2024-03-02T10:07:10;11.10;99.90
15617;DHT22;7908;51.688;7.130;2024-03-02T10:09:39;11.10;99.90
15617;DHT22;7908;51.688;7.130;2024-03-02T10:12:09;11.10;99.90
15617;DHT22;7908;51.688;7.130;2024-03-02T10:14:39;11.10;99.90
15617;DHT22;7908;51.688;7.130;2024-03-02T10:17:10;11.20;99.90
15617;DHT22;7908;51.688;7.130;2024-03-02T10:19:39;11.30;99.90
15617;DHT22;7908;51.688;7.130;2024-03-02T10:22:09;11.40;99.90
15617;DHT22;7908;51.688;7.130;2024-03-02T10:24:38;11.50;99.90
15617;DHT22;7908;51.688;7.130;2024-03-02T10:27:08;11.50;99.90
15617;DHT22;7908;51.688;7.130;2024-03-02T10:29:38;11.60;99.90
15617;DHT22;7908;51.688;7.130;2024-03-02T10:32:12;11.50;99.90
15617;DHT22;7908;51.688;7.130;2024-03-02T10:34:41;11.50;99.90
15617;DHT22;7908;51.688;7.130;2024-03-02T10:37:11;11.60;99.90
15617;DHT22;7908;51.688;7.130;2024-03-02T10:39:40;11.70;99.90
15617;DHT22;7908;51.688;7.130;2024-03-02T10:42:09;11.70;99.90
15617;DHT22;7908;51.688;7.130;2024-03-02T10:44:37;11.80;99.90
15617;DHT22;7908;51.688;7.130;2024-03-02T10:47:06;11.80;99.90
15617;DHT22;7908;51.688;7.130;2024-03-02T10:49:39;11.80;99.90
15617;DHT22;7908;51.688;7.130;2024-03-02T10:52:10;11.80;99.90
15617;DHT22;7908;51.688;7.130;2024-03-02T10:54:39;11.80;99.90
15617;DHT22;7908;51.688;7.130;2024-03-02T10:57:08;11.80;99.90
15617;DHT22;7908;51.688;7.130;2024-03-02T10:59:41;11.80;99.90
15617;DHT22;7908;51.688;7.130;2024-03-02T11:02:13;11.90;99.90
15617;DHT22;7908;51.688;7.130;2024-03-02T11:04:45;11.90;99.90
15617;DHT22;7908;51.688;7.130;2024-03-02T11:07:16;11.90;99.90
15617;DHT22;7908;51.688;7.130;2024-03-02T11:09:48;11.90;99.90
15617;DHT22;7908;51.688;7.130;2024-03-02T11:12:23;11.90;99.90
15617;DHT22;7908;51.688;7.130;2024-03-02T11:14:56;12.00;99.90
15617;DHT22;7908;51.688;7.130;2024-03-02T11:17:26;12.10;99.90
15617;DHT22;7908;51.688;7.130;2024-03-02T11:19:56;12.20;99.90
15617;DHT22;7908;51.688;7.130;2024-03-02T11:22:26;12.20;99.90
15617;DHT22;7908;51.688;7.130;2024-03-02T11:24:54;12.10;99.90
15617;DHT22;7908;51.688;7.130;2024-03-02T11:30:15;12.20;99.90
15617;DHT22;7908;51.688;7.130;2024-03-02T11:33:05;12.20;99.90
15617;DHT22;7908;51.688;7.130;2024-03-02T11:35:41;12.20;99.90
15617;DHT22;7908;51.688;7.130;2024-03-02T11:38:12;12.30;99.90
15617;DHT22;7908;51.688;7.130;2024-03-02T11:40:42;12.30;99.90
15617;DHT22;7908;51.688;7.130;2024-03-02T11:43:12;12.30;99.90
15617;DHT22;7908;51.688;7.130;2024-03-02T11:45:42;12.30;99.90
15617;DHT22;7908;51.688;7.130;2024-03-02T11:48:14;12.30;99.90
15617;DHT22;7908;51.688;7.130;2024-03-02T11:50:47;12.30;99.90
15617;DHT22;7908;51.688;7.130;2024-03-02T11:53:17;12.30;99.90
15617;DHT22;7908;51.688;7.130;2024-03-02T11:55:48;12.40;99.90
15617;DHT22;7908;51.688;7.130;2024-03-02T11:58:17;12.40;99.90
15617;DHT22;7908;51.688;7.130;2024-03-02T12:00:50;12.50;99.90
15617;DHT22;7908;51.688;7.130;2024-03-02T12:03:20;12.50;99.90
15617;DHT22;7908;51.688;7.130;2024-03-02T12:05:52;12.50;99.90
15617;DHT22;7908;51.688;7.130;2024-03-02T12:08:21;12.50;99.90
15617;DHT22;7908;51.688;7.130;2024-03-02T12:10:57;12.50;99.90
15617;DHT22;7908;51.688;7.130;2024-03-02T12:13:26;12.60;99.90
15617;DHT22;7908;51.688;7.130;2024-03-02T12:15:55;12.70;99.90
15617;DHT22;7908;51.688;7.130;2024-03-02T12:18:27;12.80;99.90
15617;DHT22;7908;51.688;7.130;2024-03-02T12:20:58;12.80;99.90
15617;DHT22;7908;51.688;7.130;2024-03-02T12:23:27;12.80;99.90
15617;DHT22;7908;51.688;7.130;2024-03-02T12:25:56;12.90;99.90
15617;DHT22;7908;51.688;7.130;2024-03-02T12:28:24;12.90;99.90
15617;DHT22;7908;51.688;7.130;2024-03-02T12:30:53;12.90;99.90
15617;DHT22;7908;51.688;7.130;2024-03-02T12:33:23;12.90;99.90
15617;DHT22;7908;51.688;7.130;2024-03-02T12:35:52;13.00;99.90
15617;DHT22;7908;51.688;7.130;2024-03-02T12:38:24;13.00;99.90
15617;DHT22;7908;51.688;7.130;2024-03-02T12:40:54;13.00;99.90
15617;DHT22;7908;51.688;7.130;2024-03-02T12:43:23;13.00;99.90
15617;DHT22;7908;51.688;7.130;2024-03-02T12:45:52;13.10;99.90
15617;DHT22;7908;51.688;7.130;2024-03-02T12:48:23;13.20;99.90
15617;DHT22;7908;51.688;7.130;2024-03-02T12:50:52;13.40;99.90
15617;DHT22;7908;51.688;7.130;2024-03-02T12:53:21;13.50;99.90
15617;DHT22;7908;51.688;7.130;2024-03-02T12:55:52;13.50;99.90
15617;DHT22;7908;51.688;7.130;2024-03-02T12:58:22;13.60;99.90
15617;DHT22;7908;51.688;7.130;2024-03-02T13:01:05;13.70;99.90
15617;DHT22;7908;51.688;7.130;2024-03-02T13:03:34;13.80;99.90
15617;DHT22;7908;51.688;7.130;2024-03-02T13:06:04;13.90;99.90
15617;DHT22;7908;51.688;7.130;2024-03-02T13:08:33;14.00;99.90
15617;DHT22;7908;51.688;7.130;2024-03-02T13:11:03;14.00;99.90
15617;DHT22;7908;51.688;7.130;2024-03-02T13:13:33;13.90;99.90
15617;DHT22;7908;51.688;7.130;2024-03-02T13:16:02;13.80;99.90
15617;DHT22;7908;51.688;7.130;2024-03-02T13:18:33;13.80;99.90
15617;DHT22;7908;51.688;7.130;2024-03-02T13:21:02;13.80;99.90
15617;DHT22;7908;51.688;7.130;2024-03-02T13:23:32;13.80;99.90
15617;DHT22;7908;51.688;7.130;2024-03-02T13:26:01;13.90;99.90
15617;DHT22;7908;51.688;7.130;2024-03-02T13:28:32;13.90;99.90
15617;DHT22;7908;51.688;7.130;2024-03-02T13:31:01;14.00;99.90
15617;DHT22;7908;51.688;7.130;2024-03-02T13:33:30;14.00;99.90
15617;DHT22;7908;51.688;7.130;2024-03-02T13:36:00;14.00;99.90
15617;DHT22;7908;51.688;7.130;2024-03-02T13:38:30;14.10;99.90
15617;DHT22;7908;51.688;7.130;2024-03-02T13:40:59;14.00;99.90
15617;DHT22;7908;51.688;7.130;2024-03-02T13:43:31;13.90;99.90
15617;DHT22;7908;51.688;7.130;2024-03-02T13:46:02;14.00;99.90
15617;DHT22;7908;51.688;7.130;2024-03-02T13:48:31;14.00;99.90
15617;DHT22;7908;51.688;7.130;2024-03-02T13:51:01;14.10;99.90
15617;DHT22;7908;51.688;7.130;2024-03-02T13:53:29;14.10;99.90
15617;DHT22;7908;51.688;7.130;2024-03-02T13:55:59;13.90;99.90
15617;DHT22;7908;51.688;7.130;2024-03-02T13:58:27;13.90;99.90
15617;DHT22;7908;51.688;7.130;2024-03-02T14:01:00;13.80;99.90
15617;DHT22;7908;51.688;7.130;2024-03-02T14:03:34;13.80;99.90
15617;DHT22;7908;51.688;7.130;2024-03-02T14:06:03;13.80;99.90
15617;DHT22;7908;51.688;7.130;2024-03-02T14:08:33;13.80;99.90
15617;DHT22;7908;51.688;7.130;2024-03-02T14:11:03;13.80;99.90
15617;DHT22;7908;51.688;7.130;2024-03-02T14:13:34;13.90;99.90
15617;DHT22;7908;51.688;7.130;2024-03-02T14:16:05;14.00;99.90
15617;DHT22;7908;51.688;7.130;2024-03-02T14:18:34;14.20;99.90
15617;DHT22;7908;51.688;7.130;2024-03-02T14:21:03;14.20;99.90
15617;DHT22;7908;51.688;7.130;2024-03-02T14:23:32;14.20;99.90
15617;DHT22;7908;51.688;7.130;2024-03-02T14:26:01;14.10;99.90
15617;DHT22;7908;51.688;7.130;2024-03-02T14:28:30;14.20;99.90
15617;DHT22;7908;51.688;7.130;2024-03-02T14:31:17;14.20;99.90
15617;DHT22;7908;51.688;7.130;2024-03-02T14:33:48;14.20;99.90
15617;DHT22;7908;51.688;7.130;2024-03-02T14:36:17;14.10;99.90
15617;DHT22;7908;51.688;7.130;2024-03-02T14:38:46;14.00;99.90
15617;DHT22;7908;51.688;7.130;2024-03-02T14:41:15;14.00;99.90
15617;DHT22;7908;51.688;7.130;2024-03-02T14:43:44;14.00;99.90
15617;DHT22;7908;51.688;7.130;2024-03-02T14:46:13;14.00;99.90
15617;DHT22;7908;51.688;7.130;2024-03-02T14:48:43;14.00;99.90
15617;DHT22;7908;51.688;7.130;2024-03-02T14:51:13;14.20;99.90
15617;DHT22;7908;51.688;7.130;2024-03-02T14:53:42;14.30;99.90
15617;DHT22;7908;51.688;7.130;2024-03-02T14:56:11;14.40;99.90
15617;DHT22;7908;51.688;7.130;2024-03-02T14:58:40;14.50;99.90
15617;DHT22;7908;51.688;7.130;2024-03-02T15:01:12;14.60;99.90
15617;DHT22;7908;51.688;7.130;2024-03-02T15:03:41;14.70;99.90
15617;DHT22;7908;51.688;7.130;2024-03-02T15:06:11;14.80;99.90
15617;DHT22;7908;51.688;7.130;2024-03-02T15:08:40;14.80;99.90
15617;DHT22;7908;51.688;7.130;2024-03-02T15:11:10;14.80;99.90
15617;DHT22;7908;51.688;7.130;2024-03-02T15:13:40;14.80;99.90
15617;DHT22;7908;51.688;7.130;2024-03-02T15:16:09;14.70;99.90
15617;DHT22;7908;51.688;7.130;2024-03-02T15:18:38;14.70;99.90
15617;DHT22;7908;51.688;7.130;2024-03-02T15:21:07;14.60;99.90
15617;DHT22;7908;51.688;7.130;2024-03-02T15:23:37;14.50;99.90
15617;DHT22;7908;51.688;7.130;2024-03-02T15:26:06;14.40;99.90
15617;DHT22;7908;51.688;7.130;2024-03-02T15:28:36;14.30;99.90
15617;DHT22;7908;51.688;7.130;2024-03-02T15:31:05;14.20;99.90
15617;DHT22;7908;51.688;7.130;2024-03-02T15:33:34;14.10;99.90
15617;DHT22;7908;51.688;7.130;2024-03-02T15:36:04;14.10;99.90
15617;DHT22;7908;51.688;7.130;2024-03-02T15:38:33;14.00;99.90
15617;DHT22;7908;51.688;7.130;2024-03-02T15:41:10;13.90;99.90
15617;DHT22;7908;51.688;7.130;2024-03-02T15:43:38;13.90;99.90
15617;DHT22;7908;51.688;7.130;2024-03-02T15:46:09;13.80;99.90
15617;DHT22;7908;51.688;7.130;2024-03-02T15:48:38;13.80;99.90
15617;DHT22;7908;51.688;7.130;2024-03-02T15:51:07;13.70;99.90
15617;DHT22;7908;51.688;7.130;2024-03-02T15:53:36;13.70;99.90
15617;DHT22;7908;51.688;7.130;2024-03-02T15:56:05;13.70;99.90
15617;DHT22;7908;51.688;7.130;2024-03-02T15:58:37;13.60;99.90
15617;DHT22;7908;51.688;7.130;2024-03-02T16:01:06;13.50;99.90
15617;DHT22;7908;51.688;7.130;2024-03-02T16:03:35;13.40;99.90
15617;DHT22;7908;51.688;7.130;2024-03-02T16:06:03;13.30;99.90
15617;DHT22;7908;51.688;7.130;2024-03-02T16:08:32;13.30;99.90
15617;DHT22;7908;51.688;7.130;2024-03-02T16:11:01;13.20;99.90
15617;DHT22;7908;51.688;7.130;2024-03-02T16:13:30;13.10;99.90
15617;DHT22;7908;51.688;7.130;2024-03-02T16:16:01;13.10;99.90